X  Cerrar Datos meteorológicos de aviación METAR        LGTS Thessaloniki Macedonia International
Temperatura
12°C Temperatura
12°C Punto de rocío
100% Humedad



Viento
6 MPH
9 KM/H
3 M/S
5 NUDO



270°
O
Condiciones actuales

Mostly Cloudy with Rain Mayormente nublado , Lluvia
Presión 1011 (hPa) - 29.85 (inHg)
Visibilidad 4 (milla) - 7 (km)
Aeropuerto
Código de aeropuerto LGTS

localidad: Thessaloniki Macedonia International
Distancia: 85 (mi)

Metar:
METAR LGTS 011750Z 27005KT 7000 RA SCT006 BKN030 12/12 Q1011 NOSIG

Hora: 01-03-2024 19:50 EET